»·PEaware :: N16TT KLAX-KSNA

N16TT :: KLAX-KSNA

FLIGHT INFORMATION

Flight Status: Arrived
Operator: Privately registered:
United States
More flights under this callsign
Pilot: Gareth S. (19921)
Aircraft: Unknown
(PIPA)
More flights by this aircraft type
Origin: KLAX Los Angeles Intl
United States
Destination: KSNA John Wayne-Orange Co
United States
More flights between these airports :: More routes between these airports
Route: SEAL BEACH 8 SLI
File this flight plan on PilotEdge
Remarks: TEC route LAXP55
Altitude:
(Current/Filed)
4,000ft
Speed:
(Current/Filed)
150kts
Departed: 02-Dec-18 11:06 AM
Arrived: 02-Dec-18 11:47 AM
Distance/Time
Traveled:
31nm/0:41
Distance/Time
To Go:
Arrived

Flight Plot

Page will automatically refresh every two minutes.

Flight plan parsing failed; only flown route is shown


Map Options




Map Legend


Flown Route
Filed Route
Departure Airport
Arrival Airport
Navaid (VOR, NDB)
Fix

Horizontal Profiles

Position Reports

Time Latitude Longitude Heading Altitude Ground
Speed
02-Dec-18 10:45 33.933721 -118.394254 89 103ft 0kts
02-Dec-18 10:46 33.933721 -118.394254 89 103ft 0kts
02-Dec-18 10:47 33.933721 -118.394254 89 103ft 0kts
02-Dec-18 10:48 33.933721 -118.394254 89 103ft 0kts
02-Dec-18 10:49 33.933721 -118.394254 89 103ft 0kts
02-Dec-18 10:50 33.933721 -118.394254 89 103ft 0kts
02-Dec-18 10:51 33.933721 -118.394254 89 103ft 0kts
02-Dec-18 10:52 33.933721 -118.394254 89 103ft 0kts
02-Dec-18 10:53 33.933721 -118.394254 89 103ft 0kts
02-Dec-18 10:54 33.933721 -118.394254 89 103ft 0kts
02-Dec-18 10:55 33.933721 -118.394254 89 103ft 0kts
02-Dec-18 10:56 33.933721 -118.394254 89 103ft 0kts
02-Dec-18 10:57 33.933721 -118.394254 89 103ft 0kts
02-Dec-18 10:58 33.933721 -118.394254 89 103ft 0kts
02-Dec-18 10:59 33.933721 -118.394254 89 103ft 0kts
02-Dec-18 11:00 33.933721 -118.394254 89 103ft 0kts
02-Dec-18 11:01 33.933721 -118.394254 89 103ft 0kts
02-Dec-18 11:02 33.933721 -118.394254 89 103ft 0kts
02-Dec-18 11:03 33.933721 -118.394254 89 103ft 0kts
02-Dec-18 11:04 33.933721 -118.394254 89 103ft 0kts
02-Dec-18 11:05 33.934958 -118.393760 49 103ft 12kts
02-Dec-18 11:06 33.935619 -118.387656 85 98ft 22kts
02-Dec-18 11:07 33.936481 -118.382761 351 95ft 0kts
02-Dec-18 11:08 33.936481 -118.382761 351 95ft 0kts
02-Dec-18 11:09 33.936134 -118.393011 264 231ft 97kts
02-Dec-18 11:10 33.930228 -118.428512 263 1554ft 106kts
02-Dec-18 11:11 33.912604 -118.453734 212 2953ft 122kts
02-Dec-18 11:12 33.871613 -118.481562 213 3185ft 189kts
02-Dec-18 11:13 33.827256 -118.477419 141 4202ft 171kts
02-Dec-18 11:14 33.790775 -118.441429 142 5019ft 186kts
02-Dec-18 11:15 33.751869 -118.401401 142 5015ft 183kts
02-Dec-18 11:16 33.713353 -118.361605 141 5016ft 183kts
02-Dec-18 11:17 33.674996 -118.321768 142 5017ft 185kts
02-Dec-18 11:18 33.635632 -118.281306 141 5014ft 189kts
02-Dec-18 11:19 33.595176 -118.240430 141 5004ft 189kts
02-Dec-18 11:20 33.554790 -118.200714 141 5003ft 188kts
02-Dec-18 11:21 33.513833 -118.161865 141 5002ft 187kts
02-Dec-18 11:22 33.472767 -118.124176 141 5001ft 184kts
02-Dec-18 11:23 33.437162 -118.083539 90 4979ft 175kts
02-Dec-18 11:24 33.476410 -118.059572 1 4004ft 181kts
02-Dec-18 11:25 33.523767 -118.056519 1 3998ft 161kts
02-Dec-18 11:26 33.567179 -118.052916 1 3999ft 154kts
02-Dec-18 11:27 33.609485 -118.048653 1 3999ft 152kts
02-Dec-18 11:28 33.651631 -118.048052 357 4000ft 151kts
02-Dec-18 11:29 33.693521 -118.047366 357 3999ft 151kts
02-Dec-18 11:30 33.735525 -118.046687 357 3999ft 151kts
02-Dec-18 11:31 33.777266 -118.044216 24 3989ft 156kts
02-Dec-18 11:32 33.801180 -117.999054 56 4009ft 161kts
02-Dec-18 11:33 33.822255 -117.951654 58 3995ft 161kts
02-Dec-18 11:34 33.842633 -117.903756 59 3994ft 160kts
02-Dec-18 11:35 33.862507 -117.855805 60 3993ft 160kts
02-Dec-18 11:36 33.882043 -117.807915 60 3993ft 160kts
02-Dec-18 11:37 33.901810 -117.759968 49 3990ft 158kts
02-Dec-18 11:38 33.939639 -117.732619 27 3644ft 166kts
02-Dec-18 11:39 33.979470 -117.707800 358 3490ft 156kts
02-Dec-18 11:40 33.978353 -117.741000 181 3494ft 163kts
02-Dec-18 11:41 33.936447 -117.720508 155 3502ft 163kts
02-Dec-18 11:42 33.893962 -117.731865 206 3397ft 165kts
02-Dec-18 11:43 33.853899 -117.756046 208 3393ft 154kts
02-Dec-18 11:44 33.814658 -117.780719 208 2800ft 157kts
02-Dec-18 11:45 33.775770 -117.805441 207 2107ft 144kts
02-Dec-18 11:46 33.742950 -117.826179 207 1486ft 130kts
02-Dec-18 11:47 33.716082 -117.843226 207 862ft 99kts
02-Dec-18 11:48 33.693583 -117.857470 206 362ft 85kts
02-Dec-18 11:49 33.674685 -117.869446 207 59ft 44kts
02-Dec-18 11:50 33.669318 -117.871821 131 59ft 0kts
02-Dec-18 11:51 33.670079 -117.870019 32 59ft 10kts
02-Dec-18 11:52 33.670606 -117.867896 30 59ft 0kts
02-Dec-18 11:53 33.670606 -117.867896 30 59ft 0kts
02-Dec-18 11:54 33.670606 -117.867896 30 59ft 0kts
02-Dec-18 11:55 33.670606 -117.867896 30 59ft 0kts

Navigation Log

Ident Type
Flight plan parsing failed, navigation log unavailable